createdAt,value
2019-02-05T00:02:17.492Z,5.50
2019-02-05T00:04:47.018Z,5.48
2019-02-05T00:07:16.524Z,5.45
2019-02-05T00:09:47.114Z,5.41
2019-02-05T00:12:16.687Z,5.19
2019-02-05T00:14:46.256Z,5.04
2019-02-05T00:17:15.927Z,4.97
2019-02-05T00:19:45.495Z,5.21
2019-02-05T00:22:15.146Z,5.18
2019-02-05T00:24:45.129Z,5.34
2019-02-05T00:27:14.708Z,5.12
2019-02-05T00:29:44.276Z,5.22
2019-02-05T00:32:14.491Z,5.37
2019-02-05T00:34:44.545Z,5.12
2019-02-05T00:37:14.174Z,4.90
2019-02-05T00:39:43.841Z,5.14
2019-02-05T00:42:13.994Z,5.16
2019-02-05T00:44:45.202Z,4.98
2019-02-05T00:47:14.779Z,5.24
2019-02-05T00:49:44.282Z,5.22
2019-02-05T00:52:14.371Z,5.06
2019-02-05T00:54:44.131Z,5.05
2019-02-05T00:57:13.636Z,5.03
2019-02-05T00:59:43.170Z,4.96
2019-02-05T01:02:12.821Z,5.05
2019-02-05T01:04:42.326Z,4.92
2019-02-05T01:07:13.424Z,4.58
2019-02-05T01:09:43.044Z,4.72
2019-02-05T01:12:13.993Z,4.77
2019-02-05T01:14:43.606Z,4.77
2019-02-05T01:17:13.564Z,4.97
2019-02-05T01:19:43.075Z,4.82
2019-02-05T01:22:12.824Z,4.63
2019-02-05T01:24:42.703Z,4.77
2019-02-05T01:27:12.346Z,4.58
2019-02-05T01:29:41.994Z,4.27
2019-02-05T01:32:11.544Z,4.37
2019-02-05T01:34:46.141Z,4.16
2019-02-05T01:37:16.272Z,4.16
2019-02-05T01:39:45.854Z,4.16
2019-02-05T01:42:16.770Z,4.30
2019-02-05T01:44:46.329Z,4.16
2019-02-05T01:47:15.825Z,4.28
2019-02-05T01:49:45.398Z,4.45
2019-02-05T01:52:15.102Z,4.72
2019-02-05T01:54:44.634Z,4.41
2019-02-05T01:57:14.220Z,4.36
2019-02-05T01:59:43.828Z,4.49
2019-02-05T02:02:13.994Z,4.84
2019-02-05T02:04:43.522Z,4.61
2019-02-05T02:07:13.277Z,4.58
2019-02-05T02:09:42.896Z,4.57
2019-02-05T02:12:12.719Z,4.40
2019-02-05T02:14:42.330Z,4.52
2019-02-05T02:17:12.179Z,4.35
2019-02-05T02:19:41.794Z,4.22
2019-02-05T02:22:11.457Z,4.22
2019-02-05T02:24:40.980Z,4.39
2019-02-05T02:27:10.598Z,4.57
2019-02-05T02:29:40.569Z,4.67
2019-02-05T02:32:10.756Z,4.50
2019-02-05T02:34:40.278Z,4.27
2019-02-05T02:37:09.884Z,4.35
2019-02-05T02:39:44.033Z,4.43
2019-02-05T02:42:13.600Z,4.62
2019-02-05T02:44:43.307Z,4.53
2019-02-05T02:47:12.893Z,4.66
2019-02-05T02:49:42.417Z,4.75
2019-02-05T02:52:12.066Z,4.94
2019-02-05T02:54:41.635Z,4.97
2019-02-05T02:57:11.217Z,4.91
2019-02-05T02:59:41.636Z,4.85
2019-02-05T03:02:11.382Z,4.82
2019-02-05T03:04:40.984Z,5.12
2019-02-05T03:07:11.030Z,4.83
2019-02-05T03:09:40.537Z,5.01
2019-02-05T03:12:11.244Z,4.95
2019-02-05T03:14:40.799Z,4.91
2019-02-05T03:17:10.324Z,4.62
2019-02-05T03:19:39.847Z,5.00
2019-02-05T03:22:09.526Z,4.86
2019-02-05T03:24:39.099Z,4.77
2019-02-05T03:27:17.285Z,5.03
2019-02-05T03:29:40.155Z,5.00
2019-02-05T03:32:10.173Z,5.06
2019-02-05T03:34:39.847Z,5.17
2019-02-05T03:37:09.518Z,5.26
2019-02-05T03:39:39.051Z,5.29
2019-02-05T03:42:08.840Z,5.16
2019-02-05T03:44:38.595Z,5.20
2019-02-05T03:47:08.233Z,5.22
2019-02-05T03:49:38.000Z,4.99
2019-02-05T03:52:12.416Z,5.15
2019-02-05T03:54:55.793Z,5.19
2019-02-05T03:57:49.546Z,5.43
2019-02-05T04:00:32.433Z,5.51
2019-02-05T04:03:35.478Z,5.27
2019-02-05T04:06:42.860Z,5.05
2019-02-05T04:09:43.544Z,5.27
2019-02-05T04:12:48.038Z,5.04
2019-02-05T04:15:47.001Z,5.03
2019-02-05T04:18:36.319Z,5.24
2019-02-05T04:21:16.912Z,5.34
2019-02-05T04:24:12.058Z,5.33
2019-02-05T04:27:08.883Z,5.13
2019-02-05T04:30:13.423Z,5.13
2019-02-05T04:33:01.850Z,5.36
2019-02-05T04:35:54.142Z,5.28
2019-02-05T04:38:42.562Z,5.14
2019-02-05T04:41:31.565Z,5.23
2019-02-05T04:44:34.601Z,5.17
2019-02-05T04:47:18.092Z,5.31
2019-02-05T04:50:12.934Z,5.08
2019-02-05T04:53:10.860Z,5.22
2019-02-05T04:56:06.239Z,5.48
2019-02-05T04:59:20.336Z,5.34
2019-02-05T05:02:19.004Z,5.58
2019-02-05T05:04:59.137Z,5.62
2019-02-05T05:07:53.227Z,5.57
2019-02-05T05:10:22.916Z,5.59
2019-02-05T05:12:52.739Z,5.56
2019-02-05T05:15:22.361Z,5.51
2019-02-05T05:17:51.947Z,5.58
2019-02-05T05:20:21.512Z,5.55
2019-02-05T05:22:52.527Z,5.31
2019-02-05T05:25:23.547Z,5.41
2019-02-05T05:27:55.161Z,5.53
2019-02-05T05:30:25.084Z,5.66
2019-02-05T05:32:54.669Z,5.54
2019-02-05T05:35:24.491Z,5.61
2019-02-05T05:37:56.323Z,5.69
2019-02-05T05:40:26.269Z,5.77
2019-02-05T05:42:55.867Z,5.78
2019-02-05T05:45:27.657Z,5.89
2019-02-05T05:47:57.173Z,5.81
2019-02-05T05:50:26.688Z,5.93
2019-02-05T05:52:56.708Z,5.83
2019-02-05T05:55:26.360Z,5.59
2019-02-05T05:57:55.949Z,5.52
2019-02-05T06:00:25.589Z,5.69
2019-02-05T06:02:55.174Z,5.53
2019-02-05T06:05:24.823Z,5.69
2019-02-05T06:07:54.662Z,5.67
2019-02-05T06:10:43.577Z,5.75
2019-02-05T06:13:13.604Z,5.96
2019-02-05T06:15:43.184Z,5.73
2019-02-05T06:18:12.782Z,5.73
2019-02-05T06:20:42.372Z,5.71
2019-02-05T06:23:11.938Z,5.73
2019-02-05T06:25:41.501Z,5.57
2019-02-05T06:28:11.121Z,5.57
2019-02-05T06:30:40.766Z,5.66
2019-02-05T06:33:10.258Z,5.72
2019-02-05T06:35:40.173Z,5.81
2019-02-05T06:38:09.680Z,5.84
2019-02-05T06:40:39.320Z,5.96
2019-02-05T06:43:08.930Z,5.83
2019-02-05T06:45:41.412Z,5.56
2019-02-05T06:48:10.298Z,5.71
2019-02-05T06:50:39.836Z,6.11
2019-02-05T06:53:09.882Z,5.75
2019-02-05T06:55:39.492Z,5.73
2019-02-05T06:58:09.649Z,5.78
2019-02-05T07:00:39.168Z,5.70
2019-02-05T07:03:08.872Z,5.71
2019-02-05T07:05:38.549Z,5.53
2019-02-05T07:08:08.191Z,5.63
2019-02-05T07:10:37.797Z,5.64
2019-02-05T07:13:07.669Z,5.59
2019-02-05T07:15:37.275Z,5.69
2019-02-05T07:18:06.938Z,5.75
2019-02-05T07:20:37.677Z,5.82
2019-02-05T07:23:07.218Z,5.69
2019-02-05T07:25:36.821Z,5.57
2019-02-05T07:28:06.449Z,5.59
2019-02-05T07:30:36.056Z,5.55
2019-02-05T07:33:05.999Z,5.33
2019-02-05T07:35:35.958Z,5.50
2019-02-05T07:38:05.728Z,5.59
2019-02-05T07:40:35.385Z,5.55
2019-02-05T07:43:05.494Z,5.89
2019-02-05T07:45:35.111Z,5.58
2019-02-05T07:48:05.362Z,5.68
2019-02-05T07:50:35.000Z,5.62
2019-02-05T07:53:05.553Z,5.82
2019-02-05T07:55:35.237Z,5.93
2019-02-05T07:58:05.116Z,6.04
2019-02-05T08:00:34.653Z,6.03
2019-02-05T08:03:04.648Z,6.18
2019-02-05T08:05:35.602Z,6.18
2019-02-05T08:08:07.316Z,6.24
2019-02-05T08:10:37.079Z,6.04
2019-02-05T08:13:06.835Z,5.95
2019-02-05T08:15:36.734Z,5.97
2019-02-05T08:18:07.859Z,6.10
2019-02-05T08:20:37.575Z,6.13
2019-02-05T08:23:07.206Z,6.12
2019-02-05T08:25:36.889Z,6.08
2019-02-05T08:28:07.093Z,6.17
2019-02-05T08:30:46.857Z,6.45
2019-02-05T08:33:16.578Z,6.49
2019-02-05T08:35:46.332Z,6.36
2019-02-05T08:38:16.078Z,6.26
2019-02-05T08:40:46.849Z,6.28
2019-02-05T08:43:16.462Z,6.01
2019-02-05T08:45:56.227Z,5.94
2019-02-05T08:48:17.476Z,6.13
2019-02-05T08:50:47.108Z,5.76
2019-02-05T08:53:16.783Z,5.85
2019-02-05T08:55:46.383Z,6.01
2019-02-05T08:58:16.153Z,5.93
2019-02-05T09:00:45.900Z,6.13
2019-02-05T09:03:16.110Z,6.10
2019-02-05T09:05:45.793Z,6.02
2019-02-05T09:08:15.397Z,6.10
2019-02-05T09:10:45.618Z,6.19
2019-02-05T09:13:15.715Z,6.23
2019-02-05T09:15:45.242Z,6.21
2019-02-05T09:18:14.953Z,6.24
2019-02-05T09:20:44.512Z,6.35
2019-02-05T09:23:14.499Z,6.48
2019-02-05T09:25:44.587Z,6.38
2019-02-05T09:28:15.266Z,6.76
2019-02-05T09:30:44.941Z,6.43
2019-02-05T09:33:20.217Z,6.73
2019-02-05T09:35:49.754Z,6.77
2019-02-05T09:38:19.376Z,7.15
2019-02-05T09:40:49.570Z,7.03
2019-02-05T09:43:19.673Z,7.33
2019-02-05T09:45:49.347Z,7.17
2019-02-05T09:48:18.977Z,6.99
2019-02-05T09:50:49.004Z,7.02
2019-02-05T09:53:18.608Z,7.45
2019-02-05T09:55:48.172Z,7.29
2019-02-05T09:58:19.519Z,7.01
2019-02-05T10:00:49.132Z,7.12
2019-02-05T10:03:18.943Z,7.34
2019-02-05T10:05:48.593Z,7.00
2019-02-05T10:08:18.259Z,7.00
2019-02-05T10:10:47.984Z,7.21
2019-02-05T10:13:17.569Z,6.66
2019-02-05T10:15:47.347Z,6.76
2019-02-05T10:18:17.035Z,6.44
2019-02-05T10:20:46.705Z,6.62
2019-02-05T10:23:16.387Z,6.82
2019-02-05T10:25:46.172Z,6.92
2019-02-05T10:28:15.879Z,6.59
2019-02-05T10:30:46.643Z,6.76
2019-02-05T10:33:16.372Z,7.06
2019-02-05T10:35:46.143Z,7.16
2019-02-05T10:38:15.874Z,7.09
2019-02-05T10:40:45.547Z,7.18
2019-02-05T10:43:15.224Z,7.12
2019-02-05T10:45:45.430Z,6.95
2019-02-05T10:48:15.436Z,7.11
2019-02-05T10:50:45.502Z,6.97
2019-02-05T10:53:15.671Z,7.00
2019-02-05T10:55:45.322Z,7.11
2019-02-05T10:58:14.931Z,6.95
2019-02-05T11:00:44.692Z,7.01
2019-02-05T11:03:14.422Z,7.30
2019-02-05T11:05:44.054Z,7.33
2019-02-05T11:08:13.614Z,7.25
2019-02-05T11:10:44.448Z,7.23
2019-02-05T11:13:14.158Z,7.25
2019-02-05T11:15:43.804Z,7.15
2019-02-05T11:18:13.736Z,7.17
2019-02-05T11:20:43.346Z,7.01
2019-02-05T11:23:13.034Z,7.10
2019-02-05T11:25:42.885Z,7.30
2019-02-05T11:28:12.645Z,7.12
2019-02-05T11:30:45.086Z,7.09
2019-02-05T11:33:16.444Z,7.07
2019-02-05T11:35:46.215Z,7.02
2019-02-05T11:38:15.905Z,7.09
2019-02-05T11:40:46.212Z,7.31
2019-02-05T11:43:15.815Z,7.22
2019-02-05T11:45:45.557Z,7.19
2019-02-05T11:48:18.281Z,7.19
2019-02-05T11:50:47.895Z,7.12
2019-02-05T11:53:17.423Z,7.13
2019-02-05T11:55:47.269Z,7.34
2019-02-05T11:58:16.896Z,7.40
2019-02-05T12:00:56.858Z,7.34
2019-02-05T12:03:26.973Z,7.19
2019-02-05T12:05:57.183Z,7.32
2019-02-05T12:08:26.951Z,7.35
2019-02-05T12:10:56.652Z,7.26
2019-02-05T12:13:26.338Z,7.39
2019-02-05T12:15:55.995Z,7.42
2019-02-05T12:18:26.178Z,7.51
2019-02-05T12:20:55.852Z,7.42
2019-02-05T12:23:27.031Z,7.37
2019-02-05T12:25:56.641Z,7.57
2019-02-05T12:28:26.201Z,7.50
2019-02-05T12:30:56.304Z,7.63
2019-02-05T12:33:26.368Z,7.32
2019-02-05T12:35:55.998Z,7.59
2019-02-05T12:38:25.665Z,7.72
2019-02-05T12:40:55.268Z,7.52
2019-02-05T12:43:24.895Z,7.59
2019-02-05T12:45:54.997Z,7.29
2019-02-05T12:48:24.759Z,7.53
2019-02-05T12:50:54.368Z,7.58
2019-02-05T12:53:24.148Z,7.51
2019-02-05T12:55:53.788Z,7.55
2019-02-05T12:58:23.389Z,7.78
2019-02-05T13:00:58.391Z,8.02
2019-02-05T13:03:24.656Z,7.88
2019-02-05T13:05:54.409Z,7.97
2019-02-05T13:08:23.974Z,7.83
2019-02-05T13:10:54.041Z,7.61
2019-02-05T13:13:23.727Z,7.52
2019-02-05T13:15:53.829Z,7.42
2019-02-05T13:18:23.705Z,7.58
2019-02-05T13:20:53.365Z,7.44
2019-02-05T13:23:23.049Z,7.49
2019-02-05T13:25:52.597Z,7.74
2019-02-05T13:28:22.197Z,7.68
2019-02-05T13:30:51.863Z,7.51
2019-02-05T13:33:21.550Z,7.46
2019-02-05T13:35:51.167Z,7.56
2019-02-05T13:38:20.849Z,7.67
2019-02-05T13:40:50.466Z,7.71
2019-02-05T13:43:20.550Z,7.76
2019-02-05T13:45:50.659Z,7.48
2019-02-05T13:48:20.213Z,7.48
2019-02-05T13:50:49.749Z,7.61
2019-02-05T13:53:19.399Z,7.53
2019-02-05T13:55:49.095Z,7.72
2019-02-05T13:58:18.786Z,7.74
2019-02-05T14:00:53.783Z,7.83
2019-02-05T14:03:23.536Z,7.36
2019-02-05T14:05:53.061Z,7.42
2019-02-05T14:08:22.803Z,7.32
2019-02-05T14:10:52.376Z,7.55
2019-02-05T14:13:21.916Z,7.68
2019-02-05T14:15:52.943Z,7.49
2019-02-05T14:18:23.187Z,7.68
2019-02-05T14:20:53.312Z,7.84
2019-02-05T14:23:22.970Z,7.94
2019-02-05T14:25:52.650Z,7.78
2019-02-05T14:28:22.256Z,7.84
2019-02-05T14:30:54.223Z,8.05
2019-02-05T14:33:23.926Z,7.86
2019-02-05T14:35:53.554Z,7.60
2019-02-05T14:38:23.855Z,7.68
2019-02-05T14:40:53.396Z,7.82
2019-02-05T14:43:23.585Z,7.47
2019-02-05T14:45:53.290Z,7.63
2019-02-05T14:48:22.895Z,7.74
2019-02-05T14:50:52.462Z,7.62
2019-02-05T14:53:22.039Z,7.33
2019-02-05T14:55:51.903Z,7.19
2019-02-05T14:58:22.243Z,7.10
2019-02-05T15:00:51.954Z,7.52
2019-02-05T15:03:22.029Z,7.31
2019-02-05T15:05:51.577Z,7.59
2019-02-05T15:08:21.215Z,7.49
2019-02-05T15:10:50.897Z,7.15
2019-02-05T15:13:20.588Z,7.10
2019-02-05T15:15:50.297Z,7.00
2019-02-05T15:18:20.087Z,7.00
2019-02-05T15:20:50.078Z,7.11
2019-02-05T15:23:20.588Z,7.13
2019-02-05T15:25:50.129Z,7.13
2019-02-05T15:28:19.820Z,7.13
2019-02-05T15:30:49.527Z,6.86
2019-02-05T15:33:23.816Z,6.98
2019-02-05T15:35:55.157Z,6.91
2019-02-05T15:38:24.877Z,6.98
2019-02-05T15:40:54.661Z,6.94
2019-02-05T15:43:24.728Z,6.70
2019-02-05T15:45:54.263Z,6.71
2019-02-05T15:48:23.946Z,6.68
2019-02-05T15:50:53.683Z,6.82
2019-02-05T15:53:23.694Z,7.11
2019-02-05T15:55:53.312Z,6.75
2019-02-05T15:58:24.928Z,6.84
2019-02-05T16:00:54.537Z,6.85
2019-02-05T16:03:24.405Z,6.84
2019-02-05T16:05:54.393Z,6.45
2019-02-05T16:08:24.412Z,6.33
2019-02-05T16:10:54.028Z,6.60
2019-02-05T16:13:23.679Z,6.47
2019-02-05T16:15:53.287Z,6.37
2019-02-05T16:18:22.974Z,6.40
2019-02-05T16:20:52.985Z,6.38
2019-02-05T16:23:22.979Z,6.49
2019-02-05T16:25:52.659Z,6.36
2019-02-05T16:28:22.374Z,6.55
2019-02-05T16:30:52.030Z,6.83
2019-02-05T16:33:21.676Z,6.69
2019-02-05T16:35:51.314Z,6.60
2019-02-05T16:38:21.413Z,6.69
2019-02-05T16:40:51.634Z,6.64
2019-02-05T16:43:21.261Z,6.76
2019-02-05T16:45:50.881Z,6.87
2019-02-05T16:48:20.572Z,6.75
2019-02-05T16:50:51.434Z,6.79
2019-02-05T16:53:21.136Z,6.45
2019-02-05T16:55:51.235Z,6.65
2019-02-05T16:58:20.966Z,6.62
2019-02-05T17:00:50.655Z,6.74
2019-02-05T17:03:20.204Z,6.78
2019-02-05T17:05:50.022Z,6.80
2019-02-05T17:08:19.644Z,6.86
2019-02-05T17:10:49.263Z,6.86
2019-02-05T17:13:19.105Z,6.68
2019-02-05T17:15:48.716Z,6.49
2019-02-05T17:18:23.593Z,6.53
2019-02-05T17:20:49.689Z,6.65
2019-02-05T17:23:19.233Z,6.63
2019-02-05T17:25:48.838Z,6.51
2019-02-05T17:28:18.491Z,6.77
2019-02-05T17:30:48.026Z,6.72
2019-02-05T17:33:17.589Z,6.60
2019-02-05T17:35:49.940Z,6.63
2019-02-05T17:38:19.473Z,6.46
2019-02-05T17:40:49.031Z,6.34
2019-02-05T17:43:18.674Z,6.42
2019-02-05T17:45:48.693Z,6.42
2019-02-05T17:48:18.654Z,6.29
2019-02-05T17:50:48.358Z,6.51
2019-02-05T17:53:17.896Z,6.46
2019-02-05T17:55:47.500Z,6.37
2019-02-05T17:58:17.372Z,6.43
2019-02-05T18:00:52.102Z,6.40
2019-02-05T18:03:22.540Z,6.40
2019-02-05T18:06:13.011Z,6.48
2019-02-05T18:08:45.339Z,6.39
2019-02-05T18:11:14.984Z,6.48
2019-02-05T18:13:45.512Z,6.29
2019-02-05T18:16:15.279Z,6.42
2019-02-05T18:18:47.724Z,6.36
2019-02-05T18:21:18.970Z,6.34
2019-02-05T18:23:48.748Z,6.24
2019-02-05T18:26:18.865Z,6.52
2019-02-05T18:28:51.312Z,6.59
2019-02-05T18:31:20.946Z,6.36
2019-02-05T18:33:50.494Z,6.38
2019-02-05T18:36:20.131Z,6.57
2019-02-05T18:38:49.887Z,6.38
2019-02-05T18:41:19.826Z,6.02
2019-02-05T18:43:50.237Z,5.90
2019-02-05T18:46:23.258Z,5.92
2019-02-05T18:49:05.319Z,5.96
2019-02-05T18:51:31.344Z,5.98
2019-02-05T18:54:01.263Z,6.04
2019-02-05T18:56:31.503Z,5.99
2019-02-05T18:59:02.746Z,6.24
2019-02-05T19:01:32.853Z,6.38
2019-02-05T19:04:02.462Z,6.31
2019-02-05T19:06:38.182Z,6.35
2019-02-05T19:09:13.110Z,6.27
2019-02-05T19:11:43.226Z,6.17
2019-02-05T19:14:13.002Z,6.11
2019-02-05T19:16:42.789Z,5.80
2019-02-05T19:19:15.527Z,6.03
2019-02-05T19:21:47.485Z,6.29
2019-02-05T19:24:18.638Z,6.05
2019-02-05T19:26:49.255Z,6.09
2019-02-05T19:29:20.533Z,6.19
2019-02-05T19:31:51.133Z,5.97
2019-02-05T19:34:20.923Z,5.95
2019-02-05T19:36:50.631Z,5.95
2019-02-05T19:39:20.342Z,6.11
2019-02-05T19:41:50.634Z,6.17
2019-02-05T19:44:20.338Z,6.10
2019-02-05T19:46:54.556Z,5.99
2019-02-05T19:49:26.289Z,6.04
2019-02-05T19:51:56.790Z,5.97
2019-02-05T19:54:26.955Z,5.82
2019-02-05T19:56:59.651Z,5.87
2019-02-05T19:59:29.948Z,5.95
2019-02-05T20:01:59.667Z,5.70
2019-02-05T20:04:30.547Z,5.83
2019-02-05T20:07:00.231Z,5.66
2019-02-05T20:09:29.842Z,5.67
2019-02-05T20:12:04.224Z,5.69
2019-02-05T20:14:34.077Z,5.93
2019-02-05T20:17:04.440Z,5.71
2019-02-05T20:19:34.488Z,5.63
2019-02-05T20:22:04.361Z,5.85
2019-02-05T20:24:34.072Z,5.85
2019-02-05T20:27:03.931Z,5.51
2019-02-05T20:29:33.685Z,5.58
2019-02-05T20:32:04.020Z,5.44
2019-02-05T20:34:34.205Z,5.69
2019-02-05T20:37:03.991Z,5.56
2019-02-05T20:39:33.840Z,5.32
2019-02-05T20:42:03.921Z,5.25
2019-02-05T20:44:33.749Z,5.31
2019-02-05T20:47:03.852Z,5.36
2019-02-05T20:49:33.623Z,5.40
2019-02-05T20:52:03.598Z,5.06
2019-02-05T20:54:33.345Z,5.20
2019-02-05T20:57:03.363Z,5.42
2019-02-05T20:59:33.085Z,5.13
2019-02-05T21:02:03.089Z,5.15
2019-02-05T21:04:35.416Z,5.27
2019-02-05T21:07:04.442Z,5.10
2019-02-05T21:09:34.051Z,4.79
2019-02-05T21:12:03.830Z,4.70
2019-02-05T21:14:33.584Z,4.89
2019-02-05T21:17:04.063Z,4.90
2019-02-05T21:19:33.891Z,4.69
2019-02-05T21:22:03.661Z,4.66
2019-02-05T21:24:33.462Z,4.87
2019-02-05T21:27:03.448Z,4.92
2019-02-05T21:29:33.127Z,4.71
2019-02-05T21:32:06.041Z,4.71
2019-02-05T21:34:36.029Z,4.68
2019-02-05T21:37:05.721Z,4.92
2019-02-05T21:39:35.373Z,4.77
2019-02-05T21:42:06.109Z,5.11
2019-02-05T21:44:35.673Z,5.04
2019-02-05T21:47:05.664Z,5.19
2019-02-05T21:49:35.572Z,4.82
2019-02-05T21:52:05.362Z,4.95
2019-02-05T21:54:35.169Z,5.02
2019-02-05T21:57:04.863Z,4.92
2019-02-05T21:59:34.394Z,4.64
2019-02-05T22:02:04.132Z,4.95
2019-02-05T22:04:34.219Z,4.94
2019-02-05T22:07:05.330Z,4.99
2019-02-05T22:09:35.070Z,4.82
2019-02-05T22:12:04.705Z,4.98
2019-02-05T22:14:34.333Z,4.71
2019-02-05T22:17:04.479Z,4.91
2019-02-05T22:19:34.009Z,4.74
2019-02-05T22:22:03.718Z,4.77
2019-02-05T22:24:33.354Z,4.85
2019-02-05T22:27:03.438Z,4.78
2019-02-05T22:29:33.876Z,4.63
2019-02-05T22:32:03.440Z,4.66
2019-02-05T22:34:39.388Z,4.74
2019-02-05T22:37:04.427Z,4.64
2019-02-05T22:39:34.770Z,4.66
2019-02-05T22:42:05.009Z,4.57
2019-02-05T22:44:34.624Z,4.67
2019-02-05T22:47:04.402Z,4.70
2019-02-05T22:49:34.008Z,4.73
2019-02-05T22:52:03.549Z,4.63
2019-02-05T22:54:33.112Z,4.68
2019-02-05T22:57:02.719Z,4.71
2019-02-05T22:59:32.952Z,4.62
2019-02-05T23:02:03.468Z,4.77
2019-02-05T23:04:35.580Z,4.81
2019-02-05T23:07:11.836Z,4.90
2019-02-05T23:09:48.776Z,4.65
2019-02-05T23:12:25.979Z,4.77
2019-02-05T23:15:02.962Z,4.63
2019-02-05T23:17:32.738Z,4.35
2019-02-05T23:20:02.442Z,4.47
2019-02-05T23:22:31.965Z,4.45
2019-02-05T23:25:01.513Z,4.38
2019-02-05T23:27:31.093Z,4.31
2019-02-05T23:30:02.170Z,4.37
2019-02-05T23:32:31.777Z,4.33
2019-02-05T23:35:02.628Z,4.39
2019-02-05T23:37:32.593Z,4.09
2019-02-05T23:40:03.014Z,4.29
2019-02-05T23:42:32.525Z,4.36
2019-02-05T23:45:02.028Z,4.23
2019-02-05T23:47:32.030Z,4.23
2019-02-05T23:50:01.533Z,4.09
2019-02-05T23:52:31.121Z,4.24
2019-02-05T23:55:01.122Z,4.06
2019-02-05T23:57:50.212Z,4.21
